METAR

METAR LDZA 280100Z 22003KT CAVOK 16/14 Q1018 NOSIG =
METAR LDSP 280100Z AUTO VRB02KT CAVOK 21/17 Q1017=
METAR LDDU 280100Z 07004KT CAVOK 22/13 Q1017 =
METAR LDZD 280100Z VRB01KT CAVOK 16/15 Q1017 =
METAR LDPL 280100Z VRB02KT CAVOK 19/16 Q1017=
METAR LDOS 280100Z 07006KT CAVOK 18/16 Q1018=
METAR LDRI 280100Z VRB02KT CAVOK 21/16 Q1018=

TAF

TAF LDZA 272325Z 2800/2900 VRB02KT 9999 SCT045
                 TX28/2814Z TN15/2804Z
    PROB30 TEMPO 2814/2821 TSRA FEW030CB SCT035=
TAF LDSP 272325Z 2800/2900 31006KT CAVOK
                 TX29/2812Z TN20/2804Z
           BECMG 2809/2811 23010KT
           BECMG 2815/2817 23006KT
           BECMG 2817/2819 33005KT=
TAF LDDU 272325Z 2800/2900 08005KT CAVOK
                 TX27/2809Z TN22/2804Z
           TEMPO 2809/2812 26008KT
           BECMG 2811/2813 29010KT
           BECMG 2816/2818 30005KT=
TAF LDZD 272325Z 2800/2900 VRB02KT CAVOK
                 TX29/2811Z TN15/2804Z
    PROB30 TEMPO 2801/2805 3000 BR MIFG
           BECMG 2810/2812 30010KT
           BECMG 2815/2817 32006KT
           BECMG 2821/2823 VRB02KT=
TAF LDPL 272325Z 2800/2900 VRB02KT CAVOK
                 TX27/2813Z TN16/2803Z
           TEMPO 2803/2808 09006KT
           BECMG 2811/2813 28008KT
           BECMG 2818/2820 VRB02KT=
TAF LDOS 272325Z 2800/2900 12005KT CAVOK
                 TX29/2814Z TN16/2804Z
    PROB30 TEMPO 2815/2818 VRB15KT TSRA FEW040CB SCT045
           BECMG 2819/2821 12008KT=
TAF LDRI 272325Z 2800/2900 VRB02KT CAVOK
                 TX27/2815Z TN19/2803Z
           TEMPO 2808/2816 32006KT
    PROB30 TEMPO 2812/2816 TS FEW040CB=
TAF AMD LDLO 271901Z 2719/2812 CNL=

SIGMET

AIRMET

Remark

Ukoliko se brzina i smjer vjetra ne mogu odrediti zbog privremenog kvara sustava/indikatora,
informacija o vjetru u METAR izvješću bit će prikazana kao "/////KT".

 

Disclaimer

 

In case of temporary system/sensor failure, wind speed and direction data will be represented as "/////KT" in METAR report.

 

         

      Politika MET podataka